PWSweather.com
Personal Weather Stations
Station Observations
IROGLAN40
AalgaardNO 4330

AalgaardNO 4330

Lat: 58.773, Lon: 5.846

Elevation: 326

Station Type: Davis Vanatge Pro2

Latest ConditionsUpdated 11:10:02 PM GMT+01:01 Saturday, Feb 23, 2019
Currently Today's Max Today's Min Today's Average
Temperature 45.1°F7.3°C 46.4°F8.0°C 40.5°F4.7°C 42.9°F6.1°C
Dew Point 42.4°F5.8°C 42.7°F5.9°C 38.1°F3.4°C 40.2°F4.6°C
Winds 8.1 mph SE13.0 kmh SE 12.7 mph -20.4 kmh - - 5.6 mph 9.0 kmh
Wind Gusts 15.0 mph24.1 kmh 19.6 mph31.5 kmh - -
Humidity 90% 91% 85% 90%
Pressure 30.48 in1032.2 mb 30.66 in1038.3 mb 30.48 in1032.2 mb -
Hour Temp Dew Point Humidity Winds Wind Gusts Pressure Precip Precip Rate Daily Precip Total
11:10 PM 45.1°F7.3°C 42.4°F5.8°C 90% 8.1 mph SE13.0 kmh SE 15.0 mph24.1 kmh 30.48 in1032.2 mb - 0.00 in0.0 mm 0.00 in0.0 mm
11:00 PM 45.2°F7.3°C 42.7°F5.9°C 91% 11.5 mph ESE18.5 kmh ESE 16.1 mph25.9 kmh 30.48 in1032.2 mb - 0.00 in0.0 mm 0.00 in0.0 mm
10:50 PM 45.0°F7.2°C 42.2°F5.7°C 90% 6.9 mph SE11.1 kmh SE 13.8 mph22.2 kmh 30.48 in1032.2 mb - 0.00 in0.0 mm 0.00 in0.0 mm
10:40 PM 44.8°F7.1°C 42.0°F5.6°C 90% 6.9 mph ESE11.1 kmh ESE 11.5 mph18.5 kmh 30.48 in1032.2 mb - 0.00 in0.0 mm 0.00 in0.0 mm
10:30 PM 44.7°F7.1°C 41.9°F5.5°C 90% 5.8 mph ESE9.3 kmh ESE 5.8 mph9.3 kmh 30.48 in1032.2 mb - 0.00 in0.0 mm 0.00 in0.0 mm
10:20 PM 44.8°F7.1°C 42.0°F5.6°C 90% 5.8 mph SE9.3 kmh SE 8.1 mph13.0 kmh 30.48 in1032.2 mb - 0.00 in0.0 mm 0.00 in0.0 mm
10:10 PM 44.8°F7.1°C 42.0°F5.6°C 90% 2.3 mph SE3.7 kmh SE 4.6 mph7.4 kmh 30.48 in1032.2 mb - 0.00 in0.0 mm 0.00 in0.0 mm
10:00 PM 44.8°F7.1°C 42.0°F5.6°C 90% Calm Calm -- 30.48 in1032.2 mb - 0.00 in0.0 mm 0.00 in0.0 mm
09:50 PM 44.7°F7.1°C 41.9°F5.5°C 90% Calm Calm -- 30.49 in1032.5 mb - 0.00 in0.0 mm 0.00 in0.0 mm
09:40 PM 44.6°F7.0°C 41.8°F5.4°C 90% 1.2 mph SE1.9 kmh SE 6.9 mph11.1 kmh 30.49 in1032.5 mb - 0.00 in0.0 mm 0.00 in0.0 mm
09:30 PM 44.2°F6.8°C 41.5°F5.3°C 90% 3.5 mph SE5.6 kmh SE 4.6 mph7.4 kmh 30.49 in1032.5 mb - 0.00 in0.0 mm 0.00 in0.0 mm
09:20 PM 44.2°F6.8°C 41.5°F5.3°C 90% Calm Calm -- 30.49 in1032.5 mb - 0.00 in0.0 mm 0.00 in0.0 mm
09:10 PM 44.2°F6.8°C 41.5°F5.3°C 90% 2.3 mph SE3.7 kmh SE 8.1 mph13.0 kmh 30.49 in1032.5 mb - 0.00 in0.0 mm 0.00 in0.0 mm
09:00 PM 44.2°F6.8°C 41.5°F5.3°C 90% 3.5 mph SE5.6 kmh SE 5.8 mph9.3 kmh 30.50 in1032.8 mb - 0.00 in0.0 mm 0.00 in0.0 mm
08:50 PM 44.3°F6.8°C 41.5°F5.3°C 90% 3.5 mph SE5.6 kmh SE 8.1 mph13.0 kmh 30.49 in1032.5 mb - 0.00 in0.0 mm 0.00 in0.0 mm
08:40 PM 44.3°F6.8°C 41.6°F5.3°C 90% 6.9 mph SE11.1 kmh SE 11.5 mph18.5 kmh 30.49 in1032.5 mb - 0.00 in0.0 mm 0.00 in0.0 mm
08:30 PM 44.3°F6.8°C 41.5°F5.3°C 90% 4.6 mph SE7.4 kmh SE 10.4 mph16.7 kmh 30.49 in1032.5 mb - 0.00 in0.0 mm 0.00 in0.0 mm
08:20 PM 44.3°F6.8°C 41.8°F5.4°C 91% 6.9 mph ESE11.1 kmh ESE 9.2 mph14.8 kmh 30.49 in1032.5 mb - 0.00 in0.0 mm 0.00 in0.0 mm
08:10 PM 44.3°F6.8°C 41.8°F5.4°C 91% 6.9 mph ESE11.1 kmh ESE 10.4 mph16.7 kmh 30.49 in1032.5 mb - 0.00 in0.0 mm 0.00 in0.0 mm
08:00 PM 44.2°F6.8°C 41.7°F5.4°C 91% 9.2 mph ESE14.8 kmh ESE 15.0 mph24.1 kmh 30.49 in1032.5 mb - 0.00 in0.0 mm 0.00 in0.0 mm
07:50 PM 44.2°F6.8°C 41.7°F5.4°C 91% 5.8 mph SE9.3 kmh SE 8.1 mph13.0 kmh 30.49 in1032.5 mb - 0.00 in0.0 mm 0.00 in0.0 mm
07:40 PM 44.1°F6.7°C 41.7°F5.4°C 91% 8.1 mph ESE13.0 kmh ESE 12.7 mph20.4 kmh 30.49 in1032.5 mb - 0.00 in0.0 mm 0.00 in0.0 mm
07:30 PM 44.2°F6.8°C 41.7°F5.4°C 91% 8.1 mph SE13.0 kmh SE 16.1 mph25.9 kmh 30.50 in1032.8 mb - 0.00 in0.0 mm 0.00 in0.0 mm
07:20 PM 44.2°F6.8°C 41.7°F5.4°C 91% 9.2 mph SE14.8 kmh SE 15.0 mph24.1 kmh 30.50 in1032.8 mb - 0.00 in0.0 mm 0.00 in0.0 mm
07:10 PM 44.2°F6.8°C 41.7°F5.4°C 91% 6.9 mph SE11.1 kmh SE 11.5 mph18.5 kmh 30.50 in1032.8 mb - 0.00 in0.0 mm 0.00 in0.0 mm
07:00 PM 44.2°F6.8°C 41.7°F5.4°C 91% 4.6 mph SE7.4 kmh SE 6.9 mph11.1 kmh 30.50 in1032.8 mb - 0.00 in0.0 mm 0.00 in0.0 mm
06:50 PM 44.2°F6.8°C 41.7°F5.4°C 91% 3.5 mph SE5.6 kmh SE 9.2 mph14.8 kmh 30.50 in1032.8 mb - 0.00 in0.0 mm 0.00 in0.0 mm
06:40 PM 44.2°F6.8°C 41.7°F5.4°C 91% 10.4 mph ESE16.7 kmh ESE 16.1 mph25.9 kmh 30.50 in1032.8 mb - 0.00 in0.0 mm 0.00 in0.0 mm
06:30 PM 44.2°F6.8°C 41.7°F5.4°C 91% 8.1 mph SE13.0 kmh SE 17.3 mph27.8 kmh 30.51 in1033.2 mb - 0.00 in0.0 mm 0.00 in0.0 mm
06:20 PM 44.2°F6.8°C 41.7°F5.4°C 91% 8.1 mph ESE13.0 kmh ESE 12.7 mph20.4 kmh 30.51 in1033.2 mb - 0.00 in0.0 mm 0.00 in0.0 mm
06:10 PM 44.2°F6.8°C 41.7°F5.4°C 91% Calm Calm -- 30.51 in1033.2 mb - 0.00 in0.0 mm 0.00 in0.0 mm
06:00 PM 44.1°F6.7°C 41.6°F5.3°C 91% 3.5 mph ESE5.6 kmh ESE 13.8 mph22.2 kmh 30.52 in1033.5 mb - 0.00 in0.0 mm 0.00 in0.0 mm
05:50 PM 44.1°F6.7°C 41.6°F5.3°C 91% 5.8 mph SE9.3 kmh SE 9.2 mph14.8 kmh 30.52 in1033.5 mb - 0.00 in0.0 mm 0.00 in0.0 mm
05:40 PM 44.1°F6.7°C 41.6°F5.3°C 91% 9.2 mph ESE14.8 kmh ESE 13.8 mph22.2 kmh 30.51 in1033.2 mb - 0.00 in0.0 mm 0.00 in0.0 mm
05:30 PM 44.2°F6.8°C 41.7°F5.4°C 91% 8.1 mph ESE13.0 kmh ESE 12.7 mph20.4 kmh 30.51 in1033.2 mb - 0.00 in0.0 mm 0.00 in0.0 mm
05:20 PM 44.3°F6.8°C 41.8°F5.4°C 91% 6.9 mph ESE11.1 kmh ESE 10.4 mph16.7 kmh 30.51 in1033.2 mb - 0.00 in0.0 mm 0.00 in0.0 mm
05:10 PM 44.5°F6.9°C 42.0°F5.6°C 91% 6.9 mph ESE11.1 kmh ESE 16.1 mph25.9 kmh 30.51 in1033.2 mb - 0.00 in0.0 mm 0.00 in0.0 mm
05:00 PM 44.5°F6.9°C 42.0°F5.6°C 91% 11.5 mph ESE18.5 kmh ESE 18.4 mph29.6 kmh 30.51 in1033.2 mb - 0.00 in0.0 mm 0.00 in0.0 mm
04:50 PM 44.7°F7.1°C 42.2°F5.7°C 91% 11.5 mph ESE18.5 kmh ESE 16.1 mph25.9 kmh 30.51 in1033.2 mb - 0.00 in0.0 mm 0.00 in0.0 mm
04:40 PM 44.8°F7.1°C 42.3°F5.7°C 91% 6.9 mph SE11.1 kmh SE 11.5 mph18.5 kmh 30.51 in1033.2 mb - 0.00 in0.0 mm 0.00 in0.0 mm
04:30 PM 44.9°F7.2°C 42.4°F5.8°C 91% 6.9 mph ESE11.1 kmh ESE 16.1 mph25.9 kmh 30.52 in1033.5 mb - 0.00 in0.0 mm 0.00 in0.0 mm
04:20 PM 44.9°F7.2°C 42.1°F5.6°C 90% 3.5 mph ESE5.6 kmh ESE 6.9 mph11.1 kmh 30.52 in1033.5 mb - 0.00 in0.0 mm 0.00 in0.0 mm
04:10 PM 45.0°F7.2°C 42.2°F5.7°C 90% 2.3 mph ESE3.7 kmh ESE 6.9 mph11.1 kmh 30.53 in1033.9 mb - 0.00 in0.0 mm 0.00 in0.0 mm
04:00 PM 45.0°F7.2°C 42.2°F5.7°C 90% 5.8 mph SE9.3 kmh SE 9.2 mph14.8 kmh 30.53 in1033.9 mb - 0.00 in0.0 mm 0.00 in0.0 mm
03:50 PM 44.9°F7.2°C 42.1°F5.6°C 90% 4.6 mph ESE7.4 kmh ESE 15.0 mph24.1 kmh 30.53 in1033.9 mb - 0.00 in0.0 mm 0.00 in0.0 mm
03:40 PM 44.8°F7.1°C 42.1°F5.6°C 90% 5.8 mph SE9.3 kmh SE 8.1 mph13.0 kmh 30.54 in1034.2 mb - 0.00 in0.0 mm 0.00 in0.0 mm
03:30 PM 44.8°F7.1°C 42.0°F5.6°C 90% 8.1 mph SE13.0 kmh SE 10.4 mph16.7 kmh 30.54 in1034.2 mb - 0.00 in0.0 mm 0.00 in0.0 mm
03:20 PM 44.9°F7.2°C 42.1°F5.6°C 90% 5.8 mph SE9.3 kmh SE 9.2 mph14.8 kmh 30.54 in1034.2 mb - 0.00 in0.0 mm 0.00 in0.0 mm
03:10 PM 44.9°F7.2°C 41.9°F5.5°C 89% 6.9 mph SE11.1 kmh SE 11.5 mph18.5 kmh 30.54 in1034.2 mb - 0.00 in0.0 mm 0.00 in0.0 mm
03:00 PM 44.9°F7.2°C 41.9°F5.5°C 89% 6.9 mph SE11.1 kmh SE 11.5 mph18.5 kmh 30.54 in1034.2 mb - 0.00 in0.0 mm 0.00 in0.0 mm
02:50 PM 44.9°F7.2°C 41.9°F5.5°C 89% 5.8 mph SE9.3 kmh SE 13.8 mph22.2 kmh 30.54 in1034.2 mb - 0.00 in0.0 mm 0.00 in0.0 mm
02:40 PM 44.9°F7.2°C 41.6°F5.3°C 88% 8.1 mph SE13.0 kmh SE 12.7 mph20.4 kmh 30.54 in1034.2 mb - 0.00 in0.0 mm 0.00 in0.0 mm
02:30 PM 44.9°F7.2°C 41.6°F5.3°C 88% 9.2 mph ESE14.8 kmh ESE 12.7 mph20.4 kmh 30.55 in1034.5 mb - 0.00 in0.0 mm 0.00 in0.0 mm
02:20 PM 45.0°F7.2°C 41.6°F5.3°C 88% 10.4 mph SE16.7 kmh SE 12.7 mph20.4 kmh 30.55 in1034.5 mb - 0.00 in0.0 mm 0.00 in0.0 mm
02:10 PM 45.1°F7.3°C 41.5°F5.3°C 87% 5.8 mph SE9.3 kmh SE 9.2 mph14.8 kmh 30.56 in1034.9 mb - 0.00 in0.0 mm 0.00 in0.0 mm
02:00 PM 45.3°F7.4°C 41.6°F5.3°C 87% 6.9 mph ESE11.1 kmh ESE 12.7 mph20.4 kmh 30.56 in1034.9 mb - 0.00 in0.0 mm 0.00 in0.0 mm
01:50 PM 45.4°F7.4°C 41.5°F5.3°C 86% 6.9 mph ESE11.1 kmh ESE 8.1 mph13.0 kmh 30.56 in1034.9 mb - 0.00 in0.0 mm 0.00 in0.0 mm
01:40 PM 45.6°F7.6°C 41.7°F5.4°C 86% 5.8 mph ESE9.3 kmh ESE 10.4 mph16.7 kmh 30.56 in1034.9 mb - 0.00 in0.0 mm 0.00 in0.0 mm
01:30 PM 45.8°F7.7°C 41.9°F5.5°C 86% 6.9 mph SE11.1 kmh SE 9.2 mph14.8 kmh 30.57 in1035.2 mb - 0.00 in0.0 mm 0.00 in0.0 mm
01:20 PM 46.1°F7.8°C 41.8°F5.4°C 85% 8.1 mph SE13.0 kmh SE 11.5 mph18.5 kmh 30.57 in1035.2 mb - 0.00 in0.0 mm 0.00 in0.0 mm
01:10 PM 46.2°F7.9°C 42.0°F5.6°C 85% 6.9 mph SE11.1 kmh SE 8.1 mph13.0 kmh 30.57 in1035.2 mb - 0.00 in0.0 mm 0.00 in0.0 mm
01:00 PM 46.4°F8.0°C 42.4°F5.8°C 86% 5.8 mph SE9.3 kmh SE 8.1 mph13.0 kmh 30.57 in1035.2 mb - 0.00 in0.0 mm 0.00 in0.0 mm
12:50 PM 45.6°F7.6°C 42.0°F5.6°C 87% 6.9 mph SE11.1 kmh SE 12.7 mph20.4 kmh 30.57 in1035.2 mb - 0.00 in0.0 mm 0.00 in0.0 mm
12:40 PM 44.8°F7.1°C 41.2°F5.1°C 87% 6.9 mph SE11.1 kmh SE 9.2 mph14.8 kmh 30.57 in1035.2 mb - 0.00 in0.0 mm 0.00 in0.0 mm
12:30 PM 44.5°F6.9°C 41.2°F5.1°C 88% 9.2 mph SE14.8 kmh SE 12.7 mph20.4 kmh 30.58 in1035.6 mb - 0.00 in0.0 mm 0.00 in0.0 mm
12:20 PM 44.3°F6.8°C 41.0°F5.0°C 88% 8.1 mph SE13.0 kmh SE 12.7 mph20.4 kmh 30.58 in1035.6 mb - 0.00 in0.0 mm 0.00 in0.0 mm
12:10 PM 43.8°F6.6°C 40.5°F4.7°C 88% 9.2 mph SE14.8 kmh SE 16.1 mph25.9 kmh 30.58 in1035.6 mb - 0.00 in0.0 mm 0.00 in0.0 mm
12:00 PM 43.6°F6.4°C 40.3°F4.6°C 88% 4.6 mph E7.4 kmh E 6.9 mph11.1 kmh 30.58 in1035.6 mb - 0.00 in0.0 mm 0.00 in0.0 mm
11:50 AM 43.3°F6.3°C 40.3°F4.6°C 89% 5.8 mph SE9.3 kmh SE 9.2 mph14.8 kmh 30.58 in1035.6 mb - 0.00 in0.0 mm 0.00 in0.0 mm
11:40 AM 42.9°F6.1°C 39.9°F4.4°C 89% 9.2 mph ESE14.8 kmh ESE 13.8 mph22.2 kmh 30.58 in1035.6 mb - 0.00 in0.0 mm 0.00 in0.0 mm
11:30 AM 42.6°F5.9°C 39.6°F4.2°C 89% 6.9 mph SE11.1 kmh SE 13.8 mph22.2 kmh 30.59 in1035.9 mb - 0.00 in0.0 mm 0.00 in0.0 mm
11:20 AM 42.4°F5.8°C 39.4°F4.1°C 89% 6.9 mph SE11.1 kmh SE 8.1 mph13.0 kmh 30.59 in1035.9 mb - 0.00 in0.0 mm 0.00 in0.0 mm
11:10 AM 42.2°F5.7°C 39.2°F4.0°C 89% 8.1 mph SE13.0 kmh SE 15.0 mph24.1 kmh 30.59 in1035.9 mb - 0.00 in0.0 mm 0.00 in0.0 mm
11:00 AM 42.1°F5.6°C 39.1°F3.9°C 89% 11.5 mph SE18.5 kmh SE 18.4 mph29.6 kmh 30.59 in1035.9 mb - 0.00 in0.0 mm 0.00 in0.0 mm
10:50 AM 41.9°F5.5°C 38.9°F3.8°C 89% 9.2 mph SE14.8 kmh SE 11.5 mph18.5 kmh 30.60 in1036.2 mb - 0.00 in0.0 mm 0.00 in0.0 mm
10:40 AM 41.9°F5.5°C 38.9°F3.8°C 89% 8.1 mph SE13.0 kmh SE 10.4 mph16.7 kmh 30.59 in1035.9 mb - 0.00 in0.0 mm 0.00 in0.0 mm
10:30 AM 41.6°F5.3°C 38.6°F3.7°C 89% 8.1 mph SE13.0 kmh SE 15.0 mph24.1 kmh 30.59 in1035.9 mb - 0.00 in0.0 mm 0.00 in0.0 mm
10:20 AM 41.6°F5.3°C 38.6°F3.7°C 89% 9.2 mph SE14.8 kmh SE 12.7 mph20.4 kmh 30.60 in1036.2 mb - 0.00 in0.0 mm 0.00 in0.0 mm
10:10 AM 41.6°F5.3°C 38.6°F3.7°C 89% 8.1 mph SE13.0 kmh SE 15.0 mph24.1 kmh 30.59 in1035.9 mb - 0.00 in0.0 mm 0.00 in0.0 mm
10:00 AM 41.5°F5.3°C 38.5°F3.6°C 89% 8.1 mph SE13.0 kmh SE 16.1 mph25.9 kmh 30.60 in1036.2 mb - 0.00 in0.0 mm 0.00 in0.0 mm
09:50 AM 41.6°F5.3°C 38.6°F3.7°C 89% 9.2 mph SE14.8 kmh SE 15.0 mph24.1 kmh 30.59 in1035.9 mb - 0.00 in0.0 mm 0.00 in0.0 mm
09:40 AM 41.8°F5.4°C 38.8°F3.8°C 89% 8.1 mph SE13.0 kmh SE 9.2 mph14.8 kmh 30.59 in1035.9 mb - 0.00 in0.0 mm 0.00 in0.0 mm
09:30 AM 42.2°F5.7°C 39.5°F4.2°C 90% 8.1 mph SSE13.0 kmh SSE 12.7 mph20.4 kmh 30.59 in1035.9 mb - 0.00 in0.0 mm 0.00 in0.0 mm
09:20 AM 41.9°F5.5°C 39.2°F4.0°C 90% 9.2 mph SE14.8 kmh SE 15.0 mph24.1 kmh 30.59 in1035.9 mb - 0.00 in0.0 mm 0.00 in0.0 mm
09:10 AM 41.5°F5.3°C 39.1°F3.9°C 91% 9.2 mph ESE14.8 kmh ESE 13.8 mph22.2 kmh 30.58 in1035.6 mb - 0.00 in0.0 mm 0.00 in0.0 mm
09:00 AM 41.0°F5.0°C 38.6°F3.7°C 91% 11.5 mph ESE18.5 kmh ESE 17.3 mph27.8 kmh 30.58 in1035.6 mb - 0.00 in0.0 mm 0.00 in0.0 mm
08:50 AM 40.9°F4.9°C 38.5°F3.6°C 91% 12.7 mph SE20.4 kmh SE 17.3 mph27.8 kmh 30.58 in1035.6 mb - 0.00 in0.0 mm 0.00 in0.0 mm
08:40 AM 40.8°F4.9°C 38.3°F3.5°C 91% 12.7 mph SE20.4 kmh SE 19.6 mph31.5 kmh 30.59 in1035.9 mb - 0.00 in0.0 mm 0.00 in0.0 mm
08:30 AM 40.7°F4.8°C 38.3°F3.5°C 91% 8.1 mph ESE13.0 kmh ESE 13.8 mph22.2 kmh 30.59 in1035.9 mb - 0.00 in0.0 mm 0.00 in0.0 mm
08:20 AM 40.7°F4.8°C 38.3°F3.5°C 91% 8.1 mph ESE13.0 kmh ESE 12.7 mph20.4 kmh 30.58 in1035.6 mb - 0.00 in0.0 mm 0.00 in0.0 mm
08:10 AM 40.7°F4.8°C 38.3°F3.5°C 91% 8.1 mph SE13.0 kmh SE 11.5 mph18.5 kmh 30.59 in1035.9 mb - 0.00 in0.0 mm 0.00 in0.0 mm
08:00 AM 40.8°F4.9°C 38.4°F3.6°C 91% 3.5 mph SE5.6 kmh SE 10.4 mph16.7 kmh 30.58 in1035.6 mb - 0.00 in0.0 mm 0.00 in0.0 mm
07:50 AM 40.8°F4.9°C 38.4°F3.6°C 91% 6.9 mph SE11.1 kmh SE 10.4 mph16.7 kmh 30.59 in1035.9 mb - 0.00 in0.0 mm 0.00 in0.0 mm
07:40 AM 40.9°F4.9°C 38.5°F3.6°C 91% 3.5 mph SE5.6 kmh SE 6.9 mph11.1 kmh 30.59 in1035.9 mb - 0.00 in0.0 mm 0.00 in0.0 mm
07:30 AM 41.0°F5.0°C 38.6°F3.7°C 91% 2.3 mph SSE3.7 kmh SSE 3.5 mph5.6 kmh 30.59 in1035.9 mb - 0.00 in0.0 mm 0.00 in0.0 mm
07:20 AM 41.1°F5.1°C 38.7°F3.7°C 91% 8.1 mph SE13.0 kmh SE 12.7 mph20.4 kmh 30.59 in1035.9 mb - 0.00 in0.0 mm 0.00 in0.0 mm
07:10 AM 41.1°F5.1°C 38.7°F3.7°C 91% 4.6 mph SE7.4 kmh SE 9.2 mph14.8 kmh 30.59 in1035.9 mb - 0.00 in0.0 mm 0.00 in0.0 mm
07:00 AM 41.1°F5.1°C 38.7°F3.7°C 91% 2.3 mph SSE3.7 kmh SSE 4.6 mph7.4 kmh 30.59 in1035.9 mb - 0.00 in0.0 mm 0.00 in0.0 mm
06:50 AM 41.2°F5.1°C 38.8°F3.8°C 91% 3.5 mph SE5.6 kmh SE 8.1 mph13.0 kmh 30.59 in1035.9 mb - 0.00 in0.0 mm 0.00 in0.0 mm
06:40 AM 41.2°F5.1°C 38.8°F3.8°C 91% 5.8 mph SE9.3 kmh SE 12.7 mph20.4 kmh 30.59 in1035.9 mb - 0.00 in0.0 mm 0.00 in0.0 mm
06:30 AM 41.2°F5.1°C 38.8°F3.8°C 91% Calm Calm -- 30.60 in1036.2 mb - 0.00 in0.0 mm 0.00 in0.0 mm
06:20 AM 41.2°F5.1°C 38.8°F3.8°C 91% Calm Calm 4.6 mph7.4 kmh 30.61 in1036.6 mb - 0.00 in0.0 mm 0.00 in0.0 mm
06:10 AM 41.2°F5.1°C 38.8°F3.8°C 91% Calm Calm -- 30.61 in1036.6 mb - 0.00 in0.0 mm 0.00 in0.0 mm
06:00 AM 41.2°F5.1°C 38.8°F3.8°C 91% Calm Calm -- 30.61 in1036.6 mb - 0.00 in0.0 mm 0.00 in0.0 mm
05:50 AM 41.3°F5.2°C 38.9°F3.8°C 91% Calm Calm -- 30.62 in1036.9 mb - 0.00 in0.0 mm 0.00 in0.0 mm
05:40 AM 41.3°F5.2°C 38.9°F3.8°C 91% 3.5 mph SE5.6 kmh SE 6.9 mph11.1 kmh 30.62 in1036.9 mb - 0.00 in0.0 mm 0.00 in0.0 mm
05:30 AM 41.3°F5.2°C 38.9°F3.8°C 91% Calm Calm 4.6 mph7.4 kmh 30.62 in1036.9 mb - 0.00 in0.0 mm 0.00 in0.0 mm
05:20 AM 41.3°F5.2°C 38.9°F3.8°C 91% Calm Calm -- 30.62 in1036.9 mb - 0.00 in0.0 mm 0.00 in0.0 mm
05:10 AM 41.3°F5.2°C 38.9°F3.8°C 91% 1.2 mph SSE1.9 kmh SSE 12.7 mph20.4 kmh 30.63 in1037.3 mb - 0.00 in0.0 mm 0.00 in0.0 mm
05:00 AM 41.2°F5.1°C 38.8°F3.8°C 91% 2.3 mph ESE3.7 kmh ESE 11.5 mph18.5 kmh 30.63 in1037.3 mb - 0.00 in0.0 mm 0.00 in0.0 mm
04:50 AM 41.1°F5.1°C 38.7°F3.7°C 91% 1.2 mph SE1.9 kmh SE 9.2 mph14.8 kmh 30.63 in1037.3 mb - 0.00 in0.0 mm 0.00 in0.0 mm
04:40 AM 41.1°F5.1°C 38.7°F3.7°C 91% Calm Calm 8.1 mph13.0 kmh 30.64 in1037.6 mb - 0.00 in0.0 mm 0.00 in0.0 mm
04:30 AM 41.1°F5.1°C 38.7°F3.7°C 91% 1.2 mph SE1.9 kmh SE 8.1 mph13.0 kmh 30.64 in1037.6 mb - 0.00 in0.0 mm 0.00 in0.0 mm
04:20 AM 41.1°F5.1°C 38.7°F3.7°C 91% 2.3 mph SE3.7 kmh SE 12.7 mph20.4 kmh 30.64 in1037.6 mb - 0.00 in0.0 mm 0.00 in0.0 mm
04:10 AM 41.1°F5.1°C 38.7°F3.7°C 91% 4.6 mph SE7.4 kmh SE 8.1 mph13.0 kmh 30.64 in1037.6 mb - 0.00 in0.0 mm 0.00 in0.0 mm
04:00 AM 41.1°F5.1°C 38.7°F3.7°C 91% 1.2 mph SE1.9 kmh SE 9.2 mph14.8 kmh 30.65 in1037.9 mb - 0.00 in0.0 mm 0.00 in0.0 mm
03:50 AM 41.0°F5.0°C 38.6°F3.7°C 91% Calm Calm -- 30.64 in1037.6 mb - 0.00 in0.0 mm 0.00 in0.0 mm
03:40 AM 41.0°F5.0°C 38.6°F3.7°C 91% 2.3 mph SE3.7 kmh SE 4.6 mph7.4 kmh 30.64 in1037.6 mb - 0.00 in0.0 mm 0.00 in0.0 mm
03:30 AM 40.9°F4.9°C 38.5°F3.6°C 91% Calm Calm -- 30.64 in1037.6 mb - 0.00 in0.0 mm 0.00 in0.0 mm
03:20 AM 40.9°F4.9°C 38.5°F3.6°C 91% 1.2 mph ESE1.9 kmh ESE 6.9 mph11.1 kmh 30.65 in1037.9 mb - 0.00 in0.0 mm 0.00 in0.0 mm
03:10 AM 40.8°F4.9°C 38.4°F3.6°C 91% 5.8 mph SE9.3 kmh SE 13.8 mph22.2 kmh 30.64 in1037.6 mb - 0.00 in0.0 mm 0.00 in0.0 mm
03:00 AM 40.7°F4.8°C 38.3°F3.5°C 91% 2.3 mph SE3.7 kmh SE 3.5 mph5.6 kmh 30.64 in1037.6 mb - 0.00 in0.0 mm 0.00 in0.0 mm
02:50 AM 40.7°F4.8°C 38.2°F3.4°C 91% 4.6 mph ESE7.4 kmh ESE 12.7 mph20.4 kmh 30.65 in1037.9 mb - 0.00 in0.0 mm 0.00 in0.0 mm
02:40 AM 40.6°F4.8°C 38.2°F3.4°C 91% 4.6 mph SE7.4 kmh SE 8.1 mph13.0 kmh 30.65 in1037.9 mb - 0.00 in0.0 mm 0.00 in0.0 mm
02:30 AM 40.6°F4.8°C 38.2°F3.4°C 91% 5.8 mph ESE9.3 kmh ESE 10.4 mph16.7 kmh 30.65 in1037.9 mb - 0.00 in0.0 mm 0.00 in0.0 mm
02:20 AM 40.5°F4.7°C 38.1°F3.4°C 91% 4.6 mph SE7.4 kmh SE 10.4 mph16.7 kmh 30.66 in1038.3 mb - 0.00 in0.0 mm 0.00 in0.0 mm
02:10 AM 40.5°F4.7°C 38.1°F3.4°C 91% 4.6 mph SE7.4 kmh SE 10.4 mph16.7 kmh 30.65 in1037.9 mb - 0.00 in0.0 mm 0.00 in0.0 mm
02:00 AM 40.5°F4.7°C 38.1°F3.4°C 91% 3.5 mph SE5.6 kmh SE 6.9 mph11.1 kmh 30.65 in1037.9 mb - 0.00 in0.0 mm 0.00 in0.0 mm
01:50 AM 40.5°F4.7°C 38.1°F3.4°C 91% 3.5 mph SE5.6 kmh SE 6.9 mph11.1 kmh 30.65 in1037.9 mb - 0.00 in0.0 mm 0.00 in0.0 mm
01:40 AM 40.6°F4.8°C 38.2°F3.4°C 91% 4.6 mph SE7.4 kmh SE 6.9 mph11.1 kmh 30.66 in1038.3 mb - 0.00 in0.0 mm 0.00 in0.0 mm
01:30 AM 40.6°F4.8°C 38.2°F3.4°C 91% 2.3 mph SE3.7 kmh SE 10.4 mph16.7 kmh 30.66 in1038.3 mb - 0.00 in0.0 mm 0.00 in0.0 mm
01:20 AM 40.5°F4.7°C 38.1°F3.4°C 91% 3.5 mph SE5.6 kmh SE 10.4 mph16.7 kmh 30.65 in1037.9 mb - 0.00 in0.0 mm 0.00 in0.0 mm
01:10 AM 40.6°F4.8°C 38.2°F3.4°C 91% 4.6 mph SE7.4 kmh SE 11.5 mph18.5 kmh 30.65 in1037.9 mb - 0.00 in0.0 mm 0.00 in0.0 mm
01:00 AM 40.6°F4.8°C 38.2°F3.4°C 91% 5.8 mph SSE9.3 kmh SSE 10.4 mph16.7 kmh 30.64 in1037.6 mb - 0.00 in0.0 mm 0.00 in0.0 mm
12:50 AM 40.7°F4.8°C 38.3°F3.5°C 91% 4.6 mph SE7.4 kmh SE 6.9 mph11.1 kmh 30.65 in1037.9 mb - 0.00 in0.0 mm 0.00 in0.0 mm
12:40 AM 40.7°F4.8°C 38.3°F3.5°C 91% 8.1 mph SE13.0 kmh SE 9.2 mph14.8 kmh 30.65 in1037.9 mb - 0.00 in0.0 mm 0.00 in0.0 mm
12:30 AM 40.7°F4.8°C 38.3°F3.5°C 91% 4.6 mph SE7.4 kmh SE 10.4 mph16.7 kmh 30.65 in1037.9 mb - 0.00 in0.0 mm 0.00 in0.0 mm
12:20 AM 40.8°F4.9°C 38.4°F3.6°C 91% 5.8 mph SE9.3 kmh SE 11.5 mph18.5 kmh 30.65 in1037.9 mb - 0.00 in0.0 mm 0.00 in0.0 mm
12:10 AM 40.8°F4.9°C 38.4°F3.6°C 91% 5.8 mph SE9.3 kmh SE 9.2 mph14.8 kmh 30.65 in1037.9 mb - 0.00 in0.0 mm 0.00 in0.0 mm
12:00 AM 40.8°F4.9°C 38.1°F3.4°C 90% 6.9 mph SSE11.1 kmh SSE 11.5 mph18.5 kmh 30.64 in1037.6 mb - 0.00 in0.0 mm 0.00 in0.0 mm